Time,TemperatureF,DewpointF,PressureIn,WindDirection,WindDirectionDegrees,WindSpeedMPH,WindSpeedGustMPH,Humidity,HourlyPrecipIn,Conditions,Clouds,dailyrainin,SoftwareType,DateUTC
2013-01-01 00:02:00,23.0,19.0,30.07,North,351,6.0,10.0,86,0.00,,,0.01,,2013-01-01 06:02:00,
2013-01-01 00:12:00,23.0,19.0,30.07,North,351,6.0,10.0,86,0.00,,,0.01,,2013-01-01 06:12:00,
2013-01-01 00:22:00,23.0,19.0,30.07,NNW,340,7.0,10.0,86,0.00,,,0.01,,2013-01-01 06:22:00,
2013-01-01 00:32:00,23.0,19.0,30.07,NNW,345,5.0,8.0,86,0.00,,,0.01,,2013-01-01 06:32:00,
2013-01-01 00:42:00,23.0,19.0,30.07,NNW,345,5.0,8.0,86,0.00,,,0.01,,2013-01-01 06:42:00,
2013-01-01 00:52:00,23.0,20.0,30.07,NNW,335,5.0,9.0,87,0.00,,,0.01,,2013-01-01 06:52:00,
2013-01-01 01:02:00,23.0,20.0,30.07,NNW,331,6.0,9.0,87,0.00,,,0.01,,2013-01-01 07:02:00,
2013-01-01 01:12:00,23.0,20.0,30.08,NNW,332,7.0,9.0,87,0.00,,,0.01,,2013-01-01 07:12:00,
2013-01-01 01:22:00,23.0,20.0,30.08,NNW,332,7.0,9.0,87,0.00,,,0.01,,2013-01-01 07:22:00,
2013-01-01 01:32:00,23.0,20.0,30.07,NNW,336,4.0,7.0,87,0.00,,,0.01,,2013-01-01 07:32:00,
2013-01-01 01:42:00,23.0,20.0,30.07,NNW,336,4.0,7.0,87,0.00,,,0.01,,2013-01-01 07:42:00,
2013-01-01 01:52:00,23.0,20.0,30.07,NNW,334,5.0,8.0,87,0.00,,,0.01,,2013-01-01 07:52:00,
2013-01-01 02:02:00,23.0,20.0,30.09,NNW,334,5.0,7.0,87,0.00,,,0.01,,2013-01-01 08:02:00,
2013-01-01 02:12:00,23.0,20.0,30.09,NNW,334,5.0,7.0,87,0.00,,,0.01,,2013-01-01 08:12:00,
2013-01-01 02:22:00,23.0,20.0,30.09,NNW,348,6.0,9.0,87,0.00,,,0.01,,2013-01-01 08:22:00,
2013-01-01 02:32:00,23.0,20.0,30.09,NNW,344,5.0,7.0,87,0.00,,,0.01,,2013-01-01 08:32:00,
2013-01-01 02:42:00,23.0,20.0,30.09,NNW,348,6.0,8.0,87,0.00,,,0.01,,2013-01-01 08:42:00,
2013-01-01 02:53:00,23.0,20.0,30.09,NNW,348,6.0,8.0,87,0.00,,,0.01,,2013-01-01 08:53:00,
2013-01-01 03:02:00,23.0,20.0,30.09,NNW,346,6.0,8.0,87,0.00,,,0.01,,2013-01-01 09:02:00,
2013-01-01 03:12:00,23.0,20.0,30.09,NNW,346,6.0,8.0,87,0.00,,,0.01,,2013-01-01 09:12:00,
2013-01-01 03:22:00,23.0,20.0,30.09,NNW,346,6.0,8.0,87,0.00,,,0.01,,2013-01-01 09:22:00,
2013-01-01 03:32:00,23.0,20.0,30.09,NNW,336,5.0,9.0,87,0.00,,,0.01,,2013-01-01 09:32:00,
2013-01-01 03:42:00,23.0,20.0,30.09,NNW,336,5.0,9.0,87,0.00,,,0.01,,2013-01-01 09:42:00,
2013-01-01 03:52:00,23.0,20.0,30.10,NNW,342,5.0,8.0,87,0.00,,,0.01,,2013-01-01 09:52:00,
2013-01-01 04:02:00,23.0,20.0,30.10,NNW,339,6.0,9.0,88,0.00,,,0.01,,2013-01-01 10:02:00,
2013-01-01 04:12:00,23.0,20.0,30.09,NNW,342,6.0,9.0,87,0.00,,,0.01,,2013-01-01 10:12:00,
2013-01-01 04:22:00,23.0,20.0,30.09,NNW,342,6.0,9.0,87,0.00,,,0.01,,2013-01-01 10:22:00,
2013-01-01 04:32:00,23.0,20.0,30.09,NNW,341,6.0,11.0,87,0.00,,,0.01,,2013-01-01 10:32:00,
2013-01-01 04:42:00,23.0,20.0,30.09,NNW,341,6.0,11.0,87,0.00,,,0.01,,2013-01-01 10:42:00,
2013-01-01 04:53:00,22.0,18.0,30.08,NNW,335,6.0,11.0,86,0.00,,,0.01,,2013-01-01 10:53:00,
2013-01-01 05:02:00,22.0,18.0,30.09,NNW,342,5.0,11.0,86,0.00,,,0.01,,2013-01-01 11:02:00,
2013-01-01 05:12:00,22.0,18.0,30.09,NNW,342,5.0,11.0,86,0.00,,,0.01,,2013-01-01 11:12:00,
2013-01-01 05:22:00,22.0,18.0,30.10,NNW,344,6.0,9.0,86,0.00,,,0.01,,2013-01-01 11:22:00,
2013-01-01 05:32:00,22.0,18.0,30.11,NNW,336,5.0,9.0,86,0.00,,,0.01,,2013-01-01 11:32:00,
2013-01-01 05:42:00,22.0,18.0,30.11,NNW,336,5.0,9.0,86,0.00,,,0.01,,2013-01-01 11:42:00,
2013-01-01 05:53:00,22.0,18.0,30.12,NNW,342,4.0,10.0,86,0.00,,,0.01,,2013-01-01 11:53:00,
2013-01-01 06:02:00,22.0,18.0,30.12,NNW,348,6.0,8.0,85,0.00,,,0.01,,2013-01-01 12:02:00,
2013-01-01 06:12:00,22.0,18.0,30.12,NNW,348,6.0,8.0,85,0.00,,,0.01,,2013-01-01 12:12:00,
2013-01-01 06:22:00,21.0,17.0,30.12,NNW,341,5.0,9.0,84,0.00,,,0.01,,2013-01-01 12:22:00,
2013-01-01 06:32:00,21.0,17.0,30.14,NNW,339,5.0,8.0,85,0.00,,,0.01,,2013-01-01 12:32:00,
2013-01-01 06:42:00,21.0,17.0,30.14,NNW,339,5.0,8.0,85,0.00,,,0.01,,2013-01-01 12:42:00,
2013-01-01 06:53:00,21.0,17.0,30.13,NNW,348,4.0,8.0,84,0.00,,,0.01,,2013-01-01 12:53:00,
2013-01-01 07:02:00,21.0,17.0,30.14,NNW,331,4.0,7.0,85,0.00,,,0.01,,2013-01-01 13:02:00,
2013-01-01 07:12:00,21.0,17.0,30.14,NNW,331,4.0,7.0,85,0.00,,,0.01,,2013-01-01 13:12:00,
2013-01-01 07:22:00,21.0,17.0,30.15,NNW,347,6.0,9.0,84,0.00,,,0.01,,2013-01-01 13:22:00,
2013-01-01 07:32:00,20.0,16.0,30.14,NNW,347,5.0,7.0,84,0.00,,,0.01,,2013-01-01 13:32:00,
2013-01-01 07:42:00,20.0,16.0,30.14,NNW,347,5.0,7.0,84,0.00,,,0.01,,2013-01-01 13:42:00,
2013-01-01 07:53:00,19.0,15.0,30.13,NNW,345,5.0,8.0,84,0.00,,,0.01,,2013-01-01 13:53:00,
2013-01-01 08:02:00,18.0,14.0,30.11,North,355,6.0,9.0,83,0.00,,,0.01,,2013-01-01 14:02:00,
2013-01-01 08:12:00,18.0,14.0,30.11,North,355,6.0,9.0,83,0.00,,,0.01,,2013-01-01 14:12:00,
2013-01-01 08:22:00,18.0,14.0,30.09,North,355,6.0,10.0,84,0.00,,,0.01,,2013-01-01 14:22:00,
2013-01-01 08:32:00,18.0,14.0,30.11,NNW,348,4.0,10.0,84,0.00,,,0.01,,2013-01-01 14:32:00,
2013-01-01 08:42:00,18.0,14.0,30.11,NNW,348,4.0,10.0,84,0.00,,,0.01,,2013-01-01 14:42:00,
2013-01-01 08:53:00,18.0,14.0,30.15,NNW,330,2.0,5.0,84,0.00,,,0.01,,2013-01-01 14:53:00,
2013-01-01 09:03:00,19.0,15.0,30.15,NNW,338,5.0,8.0,84,0.00,,,0.01,,2013-01-01 15:03:00,
2013-01-01 09:12:00,19.0,15.0,30.15,NNW,338,5.0,8.0,84,0.00,,,0.01,,2013-01-01 15:12:00,
2013-01-01 09:22:00,19.0,15.0,30.15,NNW,338,5.0,8.0,84,0.00,,,0.01,,2013-01-01 15:22:00,
2013-01-01 09:33:00,20.0,15.0,30.17,NNW,329,5.0,8.0,82,0.00,,,0.01,,2013-01-01 15:33:00,
2013-01-01 09:42:00,20.0,15.0,30.17,NNW,329,5.0,8.0,82,0.00,,,0.01,,2013-01-01 15:42:00,
2013-01-01 09:53:00,20.0,15.0,30.17,NNW,347,6.0,8.0,81,0.00,,,0.01,,2013-01-01 15:53:00,
2013-01-01 10:02:00,20.0,15.0,30.17,NNW,338,6.0,9.0,81,0.00,,,0.01,,2013-01-01 16:02:00,
2013-01-01 10:12:00,20.0,15.0,30.17,NNW,338,6.0,9.0,81,0.00,,,0.01,,2013-01-01 16:12:00,
2013-01-01 10:22:00,20.0,15.0,30.19,NNW,333,7.0,9.0,81,0.00,,,0.01,,2013-01-01 16:22:00,
2013-01-01 10:33:00,20.0,15.0,30.19,NNW,334,7.0,10.0,81,0.00,,,0.01,,2013-01-01 16:33:00,
2013-01-01 10:42:00,20.0,15.0,30.19,NNW,334,7.0,10.0,81,0.00,,,0.01,,2013-01-01 16:42:00,
2013-01-01 10:53:00,20.0,15.0,30.19,North,350,8.0,10.0,80,0.00,,,0.01,,2013-01-01 16:53:00,
2013-01-01 11:02:00,20.0,15.0,30.19,NNW,333,6.0,8.0,80,0.00,,,0.01,,2013-01-01 17:02:00,
2013-01-01 11:12:00,20.0,15.0,30.19,NNW,333,6.0,8.0,80,0.00,,,0.01,,2013-01-01 17:12:00,
2013-01-01 11:22:00,21.0,16.0,30.19,North,355,6.0,8.0,80,0.00,,,0.01,,2013-01-01 17:22:00,
2013-01-01 11:33:00,20.0,15.0,30.16,North,350,6.0,10.0,79,0.00,,,0.01,,2013-01-01 17:33:00,
2013-01-01 11:42:00,20.0,15.0,30.16,North,350,6.0,10.0,79,0.00,,,0.01,,2013-01-01 17:42:00,
2013-01-01 11:53:00,21.0,16.0,30.16,NNW,337,6.0,8.0,79,0.00,,,0.01,,2013-01-01 17:53:00,
2013-01-01 12:03:00,21.0,16.0,30.15,NNW,345,7.0,10.0,80,0.00,,,0.01,,2013-01-01 18:03:00,
2013-01-01 12:12:00,21.0,16.0,30.15,NNW,345,7.0,10.0,80,0.00,,,0.01,,2013-01-01 18:12:00,
2013-01-01 12:22:00,21.0,16.0,30.15,North,355,8.0,11.0,79,0.00,,,0.01,,2013-01-01 18:22:00,
2013-01-01 12:33:00,21.0,16.0,30.15,NW,326,8.0,11.0,80,0.00,,,0.01,,2013-01-01 18:33:00,
2013-01-01 12:42:00,21.0,16.0,30.15,NW,326,8.0,11.0,80,0.00,,,0.01,,2013-01-01 18:42:00,
2013-01-01 12:53:00,21.0,16.0,30.15,NW,326,8.0,11.0,80,0.00,,,0.01,,2013-01-01 18:53:00,
2013-01-01 13:02:00,22.0,16.0,30.15,NNW,348,7.0,11.0,79,0.00,,,0.01,,2013-01-01 19:02:00,
2013-01-01 13:12:00,22.0,16.0,30.15,NNW,348,7.0,11.0,79,0.00,,,0.01,,2013-01-01 19:12:00,
2013-01-01 13:22:00,22.0,16.0,30.13,North,360,9.0,12.0,77,0.00,,,0.01,,2013-01-01 19:22:00,
2013-01-01 13:32:00,21.0,15.0,30.14,NNW,338,6.0,11.0,78,0.00,,,0.01,,2013-01-01 19:32:00,
2013-01-01 13:42:00,21.0,15.0,30.14,NNW,338,6.0,11.0,78,0.00,,,0.01,,2013-01-01 19:42:00,
2013-01-01 13:53:00,22.0,16.0,30.14,NNW,339,6.0,10.0,77,0.00,,,0.01,,2013-01-01 19:53:00,
2013-01-01 14:02:00,22.0,16.0,30.14,North,355,4.0,8.0,77,0.00,,,0.01,,2013-01-01 20:02:00,
2013-01-01 14:12:00,22.0,16.0,30.14,North,355,4.0,8.0,77,0.00,,,0.01,,2013-01-01 20:12:00,
2013-01-01 14:23:00,22.0,16.0,30.14,North,350,5.0,8.0,77,0.00,,,0.01,,2013-01-01 20:23:00,
2013-01-01 14:32:00,22.0,16.0,30.13,North,355,5.0,9.0,77,0.00,,,0.01,,2013-01-01 20:32:00,
2013-01-01 14:42:00,22.0,16.0,30.13,North,355,5.0,9.0,77,0.00,,,0.01,,2013-01-01 20:42:00,
2013-01-01 14:53:00,22.0,16.0,30.14,North,355,7.0,9.0,77,0.00,,,0.01,,2013-01-01 20:53:00,
2013-01-01 15:03:00,22.0,16.0,30.14,North,355,7.0,9.0,77,0.00,,,0.01,,2013-01-01 21:03:00,
2013-01-01 15:12:00,21.0,15.0,30.14,North,360,7.0,11.0,77,0.00,,,0.00,,2013-01-01 21:12:00,
2013-01-01 15:22:00,21.0,15.0,30.14,North,360,7.0,11.0,77,0.00,,,0.00,,2013-01-01 21:22:00,
2013-01-01 15:33:00,21.0,15.0,30.14,North,355,7.0,10.0,77,0.00,,,0.00,,2013-01-01 21:33:00,
2013-01-01 15:42:00,21.0,15.0,30.14,North,355,7.0,10.0,77,0.00,,,0.00,,2013-01-01 21:42:00,
2013-01-01 15:53:00,21.0,15.0,30.14,NNW,348,6.0,9.0,78,0.00,,,0.00,,2013-01-01 21:53:00,
2013-01-01 16:02:00,21.0,14.0,30.14,NNW,344,6.0,9.0,75,0.00,,,0.00,,2013-01-01 22:02:00,
2013-01-01 16:12:00,21.0,14.0,30.14,NNW,344,6.0,9.0,75,0.00,,,0.00,,2013-01-01 22:12:00,
2013-01-01 16:22:00,20.0,13.0,30.15,NNW,345,4.0,7.0,75,0.00,,,0.00,,2013-01-01 22:22:00,
2013-01-01 16:32:00,20.0,14.0,30.15,NNW,333,0.0,3.0,76,0.00,,,0.00,,2013-01-01 22:32:00,
2013-01-01 16:42:00,20.0,14.0,30.15,NNW,333,0.0,3.0,76,0.00,,,0.00,,2013-01-01 22:42:00,
2013-01-01 16:52:00,18.0,12.0,30.15,NW,309,1.0,3.0,77,0.00,,,0.00,,2013-01-01 22:52:00,
2013-01-01 17:02:00,17.0,11.0,30.15,West,276,3.0,4.0,78,0.00,,,0.00,,2013-01-01 23:02:00,
2013-01-01 17:12:00,17.0,11.0,30.15,West,276,3.0,4.0,78,0.00,,,0.00,,2013-01-01 23:12:00,
2013-01-01 17:22:00,16.0,11.0,30.15,West,267,3.0,4.0,81,0.00,,,0.00,,2013-01-01 23:22:00,
2013-01-01 17:32:00,15.0,10.0,30.16,West,267,2.0,4.0,80,0.00,,,0.00,,2013-01-01 23:32:00,
2013-01-01 17:42:00,15.0,10.0,30.16,West,267,2.0,4.0,80,0.00,,,0.00,,2013-01-01 23:42:00,
2013-01-01 17:52:00,14.0,9.0,30.16,West,267,2.0,4.0,81,0.00,,,0.00,,2013-01-01 23:52:00,
2013-01-01 18:02:00,14.0,9.0,30.16,West,267,2.0,4.0,81,0.00,,,0.00,,2013-01-02 00:02:00,
2013-01-01 18:12:00,14.0,9.0,30.16,West,267,2.0,4.0,81,0.00,,,0.00,,2013-01-02 00:12:00,
2013-01-01 18:22:00,15.0,10.0,30.18,West,271,5.0,7.0,81,0.00,,,0.00,,2013-01-02 00:22:00,
2013-01-01 18:32:00,15.0,10.0,30.18,West,271,5.0,7.0,81,0.00,,,0.00,,2013-01-02 00:32:00,
2013-01-01 18:43:00,15.0,10.0,30.18,West,271,5.0,7.0,81,0.00,,,0.00,,2013-01-02 00:43:00,
2013-01-01 18:53:00,15.0,10.0,30.19,West,271,4.0,7.0,81,0.00,,,0.00,,2013-01-02 00:53:00,
2013-01-01 19:02:00,15.0,10.0,30.19,West,271,4.0,6.0,80,0.00,,,0.00,,2013-01-02 01:02:00,
2013-01-01 19:12:00,15.0,10.0,30.19,West,271,4.0,6.0,80,0.00,,,0.00,,2013-01-02 01:12:00,
2013-01-01 19:22:00,14.0,9.0,30.18,West,271,3.0,6.0,81,0.00,,,0.00,,2013-01-02 01:22:00,
2013-01-01 19:32:00,14.0,9.0,30.18,West,271,2.0,5.0,80,0.00,,,0.00,,2013-01-02 01:32:00,
2013-01-01 19:42:00,14.0,9.0,30.18,West,271,2.0,5.0,80,0.00,,,0.00,,2013-01-02 01:42:00,
2013-01-01 19:52:00,14.0,9.0,30.19,West,278,4.0,6.0,81,0.00,,,0.00,,2013-01-02 01:52:00,
2013-01-01 20:02:00,15.0,10.0,30.18,WNW,293,5.0,7.0,80,0.00,,,0.00,,2013-01-02 02:02:00,
2013-01-01 20:12:00,15.0,10.0,30.18,WNW,293,5.0,7.0,80,0.00,,,0.00,,2013-01-02 02:12:00,
2013-01-01 20:22:00,15.0,10.0,30.18,WNW,300,4.0,7.0,79,0.00,,,0.00,,2013-01-02 02:22:00,
2013-01-01 20:32:00,15.0,10.0,30.18,NW,304,4.0,7.0,80,0.00,,,0.00,,2013-01-02 02:32:00,
2013-01-01 20:42:00,15.0,10.0,30.18,NW,304,4.0,7.0,80,0.00,,,0.00,,2013-01-02 02:42:00,
2013-01-01 20:52:00,15.0,10.0,30.18,WNW,300,4.0,7.0,79,0.00,,,0.00,,2013-01-02 02:52:00,
2013-01-01 21:02:00,15.0,10.0,30.19,WNW,298,3.0,8.0,79,0.00,,,0.00,,2013-01-02 03:02:00,
2013-01-01 21:12:00,15.0,10.0,30.19,WNW,298,3.0,8.0,79,0.00,,,0.00,,2013-01-02 03:12:00,
2013-01-01 21:22:00,14.0,9.0,30.19,WNW,297,5.0,8.0,79,0.00,,,0.00,,2013-01-02 03:22:00,
2013-01-01 21:32:00,13.0,8.0,30.19,WNW,302,5.0,8.0,80,0.00,,,0.00,,2013-01-02 03:32:00,
2013-01-01 21:42:00,13.0,8.0,30.19,WNW,302,5.0,8.0,80,0.00,,,0.00,,2013-01-02 03:42:00,
2013-01-01 21:52:00,12.0,7.0,30.19,WNW,300,3.0,6.0,80,0.00,,,0.00,,2013-01-02 03:52:00,
2013-01-01 22:02:00,11.0,6.0,30.19,WNW,302,3.0,4.0,81,0.00,,,0.00,,2013-01-02 04:02:00,
2013-01-01 22:12:00,11.0,6.0,30.19,WNW,302,3.0,4.0,81,0.00,,,0.00,,2013-01-02 04:12:00,
2013-01-01 22:22:00,11.0,7.0,30.20,WNW,302,3.0,5.0,82,0.00,,,0.00,,2013-01-02 04:22:00,
2013-01-01 22:32:00,10.0,6.0,30.20,NW,306,2.0,5.0,82,0.00,,,0.00,,2013-01-02 04:32:00,
2013-01-01 22:42:00,10.0,6.0,30.20,NW,306,2.0,5.0,82,0.00,,,0.00,,2013-01-02 04:42:00,
2013-01-01 22:52:00,10.0,6.0,30.20,NW,306,3.0,4.0,83,0.00,,,0.00,,2013-01-02 04:52:00,
2013-01-01 23:03:00,9.0,5.0,30.20,NW,304,2.0,5.0,83,0.00,,,0.00,,2013-01-02 05:03:00,
2013-01-01 23:12:00,9.0,5.0,30.20,NW,304,2.0,5.0,83,0.00,,,0.00,,2013-01-02 05:12:00,
2013-01-01 23:22:00,9.0,5.0,30.21,WNW,301,3.0,4.0,83,0.00,,,0.00,,2013-01-02 05:22:00,
2013-01-01 23:33:00,9.0,5.0,30.21,WNW,300,3.0,5.0,84,0.00,,,0.00,,2013-01-02 05:33:00,
2013-01-01 23:42:00,9.0,5.0,30.21,WNW,300,3.0,5.0,84,0.00,,,0.00,,2013-01-02 05:42:00,
2013-01-01 23:52:00,9.0,5.0,30.20,WNW,300,2.0,4.0,83,0.00,,,0.00,,2013-01-02 05:52:00,